Time;durP1;ratioP1;P1;durP2;ratioP2;P2;SDS_P1;SDS_P2;PMS_P1;PMS_P2;Temp;Humidity;BMP_temperature;BMP_pressure;BME280_temperature;BME280_humidity;BME280_pressure;Samples;Min_cycle;Max_cycle;Signal;HPM_P1;HPM_P2
2022/04/19 00:01:06;;;;;;;;;;;10.90;96.00;;;;;;5093404;28;19908;-70
2022/04/19 00:03:32;;;;;;;;;;;10.90;96.00;;;;;;5092892;28;19917;-69
2022/04/19 00:05:58;;;;;;;;;;;10.90;96.00;;;;;;5092544;28;19950;-69
2022/04/19 00:08:24;;;;;;;;;;;10.90;95.90;;;;;;5092420;28;19908;-70
2022/04/19 00:10:49;;;;;;;;;;;10.80;96.00;;;;;;5092405;28;19916;-69
2022/04/19 00:13:19;;;;;;;;;;;10.80;95.80;;;;;;5091246;28;20328;-70
2022/04/19 00:15:45;;;;;;;;;;;10.80;95.80;;;;;;5092269;28;19932;-69
2022/04/19 00:18:11;;;;;;;;;;;10.70;95.90;;;;;;5092393;28;19966;-71
2022/04/19 00:20:42;;;;;;;;;;;10.70;96.00;;;;;;5092517;28;20299;-67
2022/04/19 00:23:17;;;;;;;;;;;10.80;96.00;;;;;;5092592;28;20344;-68
2022/04/19 00:25:44;;;;;;;;;;;10.70;96.10;;;;;;5074037;28;19959;-71
2022/04/19 00:28:10;;;;;;;;;;;10.70;96.30;;;;;;5092283;28;19955;-70
2022/04/19 00:30:36;;;;;;;;;;;10.70;96.40;;;;;;5092200;28;19969;-70
2022/04/19 00:33:02;;;;;;;;;;;10.70;96.60;;;;;;5092008;28;19919;-70
2022/04/19 00:35:28;;;;;;;;;;;10.60;96.30;;;;;;5092473;28;20305;-70
2022/04/19 00:40:56;;;;;;;;;;;10.60;96.40;;;;;;5091991;28;19916;-69
2022/04/19 00:43:26;;;;;;;;;;;10.70;96.40;;;;;;5091897;28;19908;-70
2022/04/19 00:45:52;;;;;;;;;;;10.60;96.50;;;;;;5092375;28;20315;-70
2022/04/19 00:48:21;;;;;;;;;;;10.50;96.70;;;;;;5091732;28;19923;-69
2022/04/19 00:50:50;;;;;;;;;;;10.40;97.00;;;;;;5091549;28;19945;-70
2022/04/19 00:53:17;;;;;;;;;;;10.40;97.20;;;;;;5091588;28;19926;-70
2022/04/19 00:55:44;;;;;;;;;;;10.40;97.20;;;;;;5091954;28;20356;-70
2022/04/19 00:58:11;;;;;;;;;;;10.40;97.20;;;;;;5091654;28;19943;-70
2022/04/19 01:00:37;;;;;;;;;;;10.30;97.30;;;;;;5091600;28;19908;-70
2022/04/19 01:03:03;;;;;;;;;;;10.30;97.40;;;;;;5091436;28;19919;-70
2022/04/19 01:05:29;;;;;;;;;;;10.30;97.40;;;;;;5091618;28;19908;-69
2022/04/19 01:07:55;;;;;;;;;;;10.30;97.40;;;;;;5091300;28;20348;-70
2022/04/19 01:10:21;;;;;;;;;;;10.30;97.60;;;;;;5091295;28;19916;-70
2022/04/19 01:15:37;;;;;;;;;;;10.30;97.40;;;;;;5091695;28;19972;-70
2022/04/19 01:18:03;;;;;;;;;;;10.20;97.80;;;;;;5072583;28;19931;-69
2022/04/19 01:20:51;;;;;;;;;;;10.00;98.30;;;;;;5091199;28;20332;-69
2022/04/19 01:23:20;;;;;;;;;;;10.00;98.70;;;;;;5072501;28;19938;-69
2022/04/19 01:25:46;;;;;;;;;;;9.90;98.90;;;;;;5090840;28;20007;-69
2022/04/19 01:28:12;;;;;;;;;;;9.90;99.10;;;;;;5090832;28;19908;-69
2022/04/19 01:30:54;;;;;;;;;;;9.80;99.40;;;;;;5072356;28;19975;-70
2022/04/19 01:33:21;;;;;;;;;;;9.70;99.60;;;;;;5091011;28;19956;-68
2022/04/19 01:35:48;;;;;;;;;;;9.70;99.90;;;;;;5090120;28;19935;-69
2022/04/19 01:38:13;;;;;;;;;;;9.60;99.90;;;;;;5090667;28;20355;-69
2022/04/19 01:40:39;;;;;;;;;;;9.60;99.90;;;;;;5090752;28;19919;-69
2022/04/19 01:43:05;;;;;;;;;;;9.60;99.90;;;;;;5090691;28;19908;-68
2022/04/19 01:45:32;;;;;;;;;;;9.70;99.90;;;;;;5072475;28;19908;-69
2022/04/19 01:48:00;;;;;;;;;;;9.80;99.90;;;;;;5090870;28;20351;-69
2022/04/19 01:50:26;;;;;;;;;;;9.80;99.90;;;;;;5090487;28;19916;-69
2022/04/19 01:52:53;;;;;;;;;;;9.90;99.90;;;;;;5090729;28;20291;-69
2022/04/19 01:55:20;;;;;;;;;;;9.90;99.90;;;;;;5090512;28;19908;-69
2022/04/19 01:57:47;;;;;;;;;;;10.00;99.90;;;;;;5072211;28;19915;-70
2022/04/19 02:00:13;;;;;;;;;;;10.00;99.90;;;;;;5090612;28;19919;-69
2022/04/19 02:02:39;;;;;;;;;;;10.00;99.90;;;;;;5090630;28;20323;-68
2022/04/19 02:05:06;;;;;;;;;;;10.00;99.90;;;;;;5090538;28;19908;-69
2022/04/19 02:07:35;;;;;;;;;;;10.10;99.80;;;;;;5090293;28;19938;-68
2022/04/19 02:10:01;;;;;;;;;;;10.10;99.80;;;;;;5090409;28;19923;-66
2022/04/19 02:12:27;;;;;;;;;;;10.20;99.80;;;;;;5072008;28;19912;-68
2022/04/19 02:14:54;;;;;;;;;;;10.20;99.40;;;;;;5090640;28;19931;-69
2022/04/19 02:17:20;;;;;;;;;;;10.20;99.50;;;;;;5090448;28;19908;-69
2022/04/19 02:19:49;;;;;;;;;;;10.10;99.60;;;;;;5072057;28;20327;-69
2022/04/19 02:22:15;;;;;;;;;;;10.10;99.80;;;;;;5090129;28;19927;-69
2022/04/19 02:24:41;;;;;;;;;;;10.10;99.70;;;;;;5090014;28;19912;-69
2022/04/19 02:27:07;;;;;;;;;;;10.00;99.90;;;;;;5090240;28;19953;-69
2022/04/19 02:29:32;;;;;;;;;;;9.80;99.90;;;;;;5090269;28;20356;-69
2022/04/19 02:31:58;;;;;;;;;;;9.70;99.90;;;;;;5090253;28;19928;-69
2022/04/19 02:34:24;;;;;;;;;;;9.60;99.90;;;;;;5071727;28;19961;-70
2022/04/19 02:36:52;;;;;;;;;;;9.70;99.90;;;;;;5073997;28;19919;-70
2022/04/19 02:39:19;;;;;;;;;;;9.70;99.90;;;;;;5093989;28;20110;-69
2022/04/19 02:41:45;;;;;;;;;;;9.80;99.90;;;;;;5093958;28;19953;-69
2022/04/19 02:44:10;;;;;;;;;;;9.80;99.90;;;;;;5094185;28;19912;-69
2022/04/19 02:46:37;;;;;;;;;;;9.90;99.90;;;;;;5093946;28;19938;-69
2022/04/19 02:49:04;;;;;;;;;;;9.90;99.90;;;;;;5093699;28;19908;-69
2022/04/19 02:51:31;;;;;;;;;;;9.80;99.90;;;;;;5093736;28;19912;-69
2022/04/19 02:53:57;;;;;;;;;;;9.80;99.90;;;;;;5093570;28;20088;-69
2022/04/19 02:56:23;;;;;;;;;;;9.70;99.90;;;;;;5093612;28;20375;-69
2022/04/19 02:58:48;;;;;;;;;;;9.70;99.90;;;;;;5093909;28;19908;-69
2022/04/19 03:01:15;;;;;;;;;;;9.80;99.90;;;;;;5094193;28;19908;-69
2022/04/19 03:03:40;;;;;;;;;;;9.70;99.90;;;;;;5093734;28;20287;-69
2022/04/19 03:06:07;;;;;;;;;;;9.70;99.90;;;;;;5093790;28;19914;-69
2022/04/19 03:08:35;;;;;;;;;;;9.70;99.90;;;;;;5094024;28;20216;-69
2022/04/19 03:11:02;;;;;;;;;;;9.60;99.90;;;;;;5093902;28;19916;-70
2022/04/19 03:13:28;;;;;;;;;;;9.50;99.90;;;;;;5093822;28;19922;-69
2022/04/19 03:15:54;;;;;;;;;;;9.50;99.90;;;;;;5093964;28;19962;-69
2022/04/19 03:18:20;;;;;;;;;;;9.50;99.90;;;;;;5093772;28;19912;-69
2022/04/19 03:20:47;;;;;;;;;;;9.50;99.90;;;;;;5093813;28;19951;-71
2022/04/19 03:28:42;;;;;;;;;;;9.60;99.90;;;;;;5095018;28;19961;-70
2022/04/19 03:31:08;;;;;;;;;;;9.60;99.90;;;;;;5094802;28;19919;-70
2022/04/19 03:33:36;;;;;;;;;;;9.60;99.90;;;;;;5094530;28;19909;-70
2022/04/19 03:36:04;;;;;;;;;;;9.60;99.90;;;;;;5094853;28;19912;-70
2022/04/19 03:38:53;;;;;;;;;;;9.60;99.90;;;;;;5094375;28;19909;-71
2022/04/19 03:41:19;;;;;;;;;;;9.50;99.90;;;;;;5093707;28;19908;-70
2022/04/19 03:43:45;;;;;;;;;;;9.50;99.90;;;;;;5075642;28;19908;-68
2022/04/19 03:46:11;;;;;;;;;;;9.50;99.90;;;;;;5094037;28;19909;-68
2022/04/19 03:48:37;;;;;;;;;;;9.40;99.90;;;;;;5092670;28;19983;-69
2022/04/19 03:51:03;;;;;;;;;;;9.40;99.90;;;;;;5094104;28;19970;-68
2022/04/19 03:53:29;;;;;;;;;;;9.40;99.90;;;;;;5072019;28;20257;-69
2022/04/19 03:55:55;;;;;;;;;;;9.30;99.90;;;;;;5073584;28;19908;-69
2022/04/19 03:58:21;;;;;;;;;;;9.40;99.90;;;;;;5073821;28;20374;-69
2022/04/19 04:00:48;;;;;;;;;;;9.40;99.90;;;;;;5073419;28;19909;-69
2022/04/19 04:03:13;;;;;;;;;;;9.30;99.90;;;;;;5073300;28;19943;-69
2022/04/19 04:05:39;;;;;;;;;;;9.40;99.90;;;;;;5073066;28;20005;-68
2022/04/19 04:08:05;;;;;;;;;;;9.40;99.90;;;;;;5072898;28;19924;-69
2022/04/19 04:10:31;;;;;;;;;;;9.50;99.90;;;;;;5073376;28;19923;-69
2022/04/19 04:12:58;;;;;;;;;;;9.50;99.90;;;;;;5072988;28;19908;-69
2022/04/19 04:15:24;;;;;;;;;;;9.60;99.90;;;;;;5073216;28;19909;-68
2022/04/19 04:17:50;;;;;;;;;;;9.60;99.90;;;;;;5074556;28;20217;-68
2022/04/19 04:20:16;;;;;;;;;;;9.60;99.90;;;;;;5074477;28;19909;-69
2022/04/19 04:22:41;;;;;;;;;;;9.60;99.90;;;;;;5074666;28;19916;-69
2022/04/19 04:25:07;;;;;;;;;;;9.60;99.90;;;;;;5074407;28;19909;-69
2022/04/19 04:27:33;;;;;;;;;;;9.60;99.90;;;;;;5074314;28;19950;-69
2022/04/19 04:29:59;;;;;;;;;;;9.60;99.90;;;;;;5074188;28;19960;-69
2022/04/19 04:32:25;;;;;;;;;;;9.70;99.90;;;;;;5074253;28;19995;-69
2022/04/19 04:34:51;;;;;;;;;;;9.80;99.90;;;;;;5073971;28;19908;-69
2022/04/19 04:37:17;;;;;;;;;;;9.70;99.90;;;;;;5074126;28;19934;-69
2022/04/19 04:39:42;;;;;;;;;;;9.60;99.90;;;;;;5073914;28;19909;-69
2022/04/19 04:42:09;;;;;;;;;;;9.70;99.90;;;;;;5073900;28;20319;-68
2022/04/19 04:44:34;;;;;;;;;;;9.60;99.90;;;;;;5074003;28;19908;-69
2022/04/19 04:49:44;;;;;;;;;;;9.70;99.90;;;;;;5073671;28;20379;-69
2022/04/19 04:52:11;;;;;;;;;;;9.70;99.90;;;;;;5075827;28;19909;-69
2022/04/19 04:54:38;;;;;;;;;;;9.80;99.90;;;;;;5093871;28;19928;-68
2022/04/19 04:57:04;;;;;;;;;;;9.90;99.90;;;;;;5093704;28;19938;-69
2022/04/19 04:59:31;;;;;;;;;;;9.90;99.90;;;;;;5093104;28;20000;-69
2022/04/19 05:01:57;;;;;;;;;;;9.90;99.90;;;;;;5094261;28;19915;-69
2022/04/19 05:04:24;;;;;;;;;;;10.00;99.90;;;;;;5094139;28;19908;-69
2022/04/19 05:06:49;;;;;;;;;;;10.00;99.90;;;;;;5093695;28;19915;-69
2022/04/19 05:09:15;;;;;;;;;;;10.10;99.90;;;;;;5092660;28;20021;-69
2022/04/19 05:11:41;;;;;;;;;;;10.10;99.90;;;;;;5093512;28;19927;-68
2022/04/19 05:14:10;;;;;;;;;;;10.20;99.90;;;;;;5093112;28;19961;-69
2022/04/19 05:16:38;;;;;;;;;;;10.50;99.90;;;;;;5093739;28;19915;-67
2022/04/19 05:19:04;;;;;;;;;;;11.90;98.90;;;;;;5093792;28;19908;-64
2022/04/19 05:21:31;;;;;;;;;;;13.90;95.60;;;;;;5093816;28;19999;-69
2022/04/19 05:23:58;;;;;;;;;;;16.00;92.10;;;;;;5093914;28;19962;-70
2022/04/19 05:26:28;;;;;;;;;;;17.90;87.70;;;;;;5094461;28;19915;-70
2022/04/19 05:28:54;;;;;;;;;;;19.30;83.50;;;;;;5093511;28;19908;-70
2022/04/19 05:31:20;;;;;;;;;;;19.90;81.50;;;;;;5092998;28;19916;-70
2022/04/19 05:33:46;;;;;;;;;;;21.00;77.00;;;;;;5093521;28;19992;-70
2022/04/19 05:36:12;;;;;;;;;;;21.20;75.80;;;;;;5092971;28;19915;-70
2022/04/19 05:38:38;;;;;;;;;;;21.00;74.80;;;;;;5093137;28;20279;-70
2022/04/19 05:41:04;;;;;;;;;;;21.30;74.70;;;;;;5093032;28;19912;-70
2022/04/19 05:43:30;;;;;;;;;;;21.30;74.10;;;;;;5093129;28;19908;-70
2022/04/19 05:45:59;;;;;;;;;;;21.90;72.40;;;;;;5092710;28;19915;-69
2022/04/19 05:48:25;;;;;;;;;;;22.30;70.80;;;;;;5092476;28;19961;-69
2022/04/19 05:50:51;;;;;;;;;;;22.70;68.90;;;;;;5092800;28;20034;-69
2022/04/19 05:53:17;;;;;;;;;;;21.70;70.60;;;;;;5092025;28;20359;-69
2022/04/19 05:55:43;;;;;;;;;;;21.60;72.10;;;;;;5092261;28;19918;-69
2022/04/19 05:58:09;;;;;;;;;;;22.60;69.40;;;;;;5092211;28;19912;-69
2022/04/19 06:00:34;;;;;;;;;;;23.30;67.10;;;;;;5074168;28;20370;-69
2022/04/19 06:05:45;;;;;;;;;;;23.80;66.70;;;;;;5091791;28;20386;-69
2022/04/19 06:08:10;;;;;;;;;;;23.80;65.40;;;;;;5086476;28;19913;-69
2022/04/19 06:10:36;;;;;;;;;;;25.10;64.30;;;;;;5089015;28;19916;-69
2022/04/19 06:13:02;;;;;;;;;;;26.10;62.30;;;;;;5095970;28;20266;-68
2022/04/19 06:15:31;;;;;;;;;;;27.60;60.10;;;;;;5082363;28;19927;-65
2022/04/19 06:17:57;;;;;;;;;;;27.90;58.30;;;;;;5081769;28;19912;-69
2022/04/19 06:20:23;;;;;;;;;;;28.70;57.40;;;;;;5058897;28;19997;-69
2022/04/19 06:22:48;;;;;;;;;;;29.00;56.50;;;;;;5076859;28;20387;-68
2022/04/19 06:25:14;;;;;;;;;;;29.40;55.90;;;;;;5076802;28;19915;-68
2022/04/19 06:27:40;;;;;;;;;;;29.50;54.60;;;;;;5077312;28;19998;-70
2022/04/19 06:30:06;;;;;;;;;;;30.40;55.00;;;;;;5076746;28;20237;-70
2022/04/19 06:32:32;;;;;;;;;;;31.40;51.90;;;;;;5076721;28;19989;-69
2022/04/19 06:34:58;;;;;;;;;;;32.50;51.60;;;;;;5076761;28;19973;-69
2022/04/19 06:37:24;;;;;;;;;;;32.50;49.30;;;;;;5076795;28;19909;-69
2022/04/19 06:39:50;;;;;;;;;;;32.90;50.20;;;;;;5076797;28;19978;-70
2022/04/19 06:42:15;;;;;;;;;;;33.30;50.20;;;;;;5076590;28;20249;-70
2022/04/19 06:44:41;;;;;;;;;;;33.20;49.90;;;;;;5077190;28;19916;-70
2022/04/19 06:47:07;;;;;;;;;;;34.40;49.10;;;;;;5076659;28;19909;-69
2022/04/19 06:49:33;;;;;;;;;;;34.60;48.10;;;;;;5076388;28;20272;-70
2022/04/19 06:51:59;;;;;;;;;;;35.00;46.50;;;;;;5076120;28;19977;-71
2022/04/19 06:54:25;;;;;;;;;;;34.10;46.00;;;;;;5058135;28;20340;-70
2022/04/19 06:56:51;;;;;;;;;;;32.60;48.10;;;;;;5076429;28;20371;-71
2022/04/19 06:59:17;;;;;;;;;;;33.20;49.00;;;;;;5076085;28;20367;-71
2022/04/19 07:01:43;;;;;;;;;;;30.40;48.50;;;;;;5076759;28;19909;-71
2022/04/19 07:04:09;;;;;;;;;;;32.00;49.70;;;;;;5076248;28;19913;-71
2022/04/19 07:06:35;;;;;;;;;;;31.50;47.90;;;;;;5076063;28;19909;-71
2022/04/19 07:09:03;;;;;;;;;;;32.10;48.00;;;;;;5075937;28;19979;-71
2022/04/19 07:11:29;;;;;;;;;;;33.00;48.00;;;;;;5075973;28;19916;-70
2022/04/19 07:13:55;;;;;;;;;;;33.10;46.60;;;;;;5075952;28;19995;-72
2022/04/19 07:16:21;;;;;;;;;;;33.50;47.20;;;;;;5076347;28;19908;-71
2022/04/19 07:18:47;;;;;;;;;;;32.80;46.20;;;;;;5075800;28;19991;-71
2022/04/19 07:26:41;;;;;;;;;;;28.50;51.20;;;;;;5075956;28;19917;-70
2022/04/19 07:29:10;;;;;;;;;;;28.20;52.60;;;;;;5075531;28;19908;-71
2022/04/19 07:35:12;;;;;;;;;;;26.60;54.60;;;;;;5013626;28;20088;-65
2022/04/19 07:37:38;;;;;;;;;;;25.20;56.70;;;;;;5014399;28;20388;-65
2022/04/19 07:40:05;;;;;;;;;;;24.40;59.10;;;;;;5014283;28;19910;-73
2022/04/19 07:42:30;;;;;;;;;;;23.90;59.80;;;;;;5013602;28;20043;-68
2022/04/19 07:44:56;;;;;;;;;;;23.90;60.60;;;;;;4996958;28;20004;-69
2022/04/19 07:47:22;;;;;;;;;;;23.60;60.60;;;;;;5013063;28;19910;-68
2022/04/19 07:49:49;;;;;;;;;;;22.80;61.20;;;;;;5012853;28;19921;-69
2022/04/19 07:52:15;;;;;;;;;;;23.10;62.30;;;;;;5012892;28;20392;-69
2022/04/19 07:54:42;;;;;;;;;;;23.30;63.00;;;;;;5013291;28;19921;-69
2022/04/19 07:57:08;;;;;;;;;;;23.20;63.00;;;;;;5012575;28;19909;-69
2022/04/19 07:59:34;;;;;;;;;;;23.30;62.30;;;;;;5013157;28;19910;-70
2022/04/19 08:02:01;;;;;;;;;;;22.70;62.90;;;;;;5012104;28;19952;-64
2022/04/19 08:04:26;;;;;;;;;;;22.40;63.20;;;;;;5012359;28;19972;-68
2022/04/19 08:06:53;;;;;;;;;;;21.80;65.40;;;;;;5012091;28;20309;-69
2022/04/19 08:09:19;;;;;;;;;;;21.70;66.40;;;;;;5012166;28;20332;-67
2022/04/19 08:11:44;;;;;;;;;;;21.80;66.40;;;;;;5057675;28;19913;-68
2022/04/19 08:14:10;;;;;;;;;;;21.90;66.20;;;;;;5073729;28;19908;-66
2022/04/19 08:16:36;;;;;;;;;;;21.70;67.70;;;;;;5074330;28;20367;-68
2022/04/19 08:19:02;;;;;;;;;;;21.90;68.90;;;;;;5074952;28;19913;-69
2022/04/19 08:21:49;;;;;;;;;;;21.90;70.00;;;;;;5074318;28;19908;-71
2022/04/19 08:24:16;;;;;;;;;;;21.50;71.30;;;;;;5074483;28;20048;-70
2022/04/19 08:26:42;;;;;;;;;;;21.70;71.50;;;;;;5074282;28;20359;-70
2022/04/19 08:29:07;;;;;;;;;;;21.50;71.20;;;;;;5074440;28;19908;-70
2022/04/19 08:31:34;;;;;;;;;;;21.30;72.50;;;;;;5074149;28;19963;-71
2022/04/19 08:34:01;;;;;;;;;;;21.20;72.60;;;;;;5073223;28;19913;-70
2022/04/19 08:36:26;;;;;;;;;;;21.20;73.60;;;;;;5074423;28;19909;-70
2022/04/19 08:38:52;;;;;;;;;;;20.90;74.50;;;;;;5074108;28;19908;-70
2022/04/19 08:41:20;;;;;;;;;;;20.70;75.60;;;;;;5074766;28;19932;-70
2022/04/19 08:43:46;;;;;;;;;;;20.60;75.80;;;;;;5073996;28;19915;-70
2022/04/19 08:46:12;;;;;;;;;;;20.50;77.10;;;;;;5073944;28;19908;-70
2022/04/19 08:48:40;;;;;;;;;;;20.30;77.90;;;;;;5073781;28;19908;-70
2022/04/19 08:51:09;;;;;;;;;;;20.40;77.70;;;;;;5055602;28;19916;-72
2022/04/19 08:59:05;;;;;;;;;;;19.40;82.80;;;;;;5073360;28;19916;-70
2022/04/19 09:01:31;;;;;;;;;;;19.50;83.60;;;;;;5073461;28;19913;-70
2022/04/19 09:03:57;;;;;;;;;;;19.30;83.60;;;;;;5073752;28;20034;-71
2022/04/19 09:06:41;;;;;;;;;;;19.20;83.80;;;;;;5073332;28;19961;-70
2022/04/19 09:09:30;;;;;;;;;;;18.60;86.20;;;;;;5073527;28;19951;-70
2022/04/19 09:12:09;;;;;;;;;;;18.90;86.30;;;;;;5073577;28;19912;-70
2022/04/19 09:14:35;;;;;;;;;;;18.90;86.20;;;;;;5073359;28;20007;-71
2022/04/19 09:17:03;;;;;;;;;;;19.30;84.10;;;;;;5088825;28;20004;-71
2022/04/19 09:19:29;;;;;;;;;;;19.60;84.80;;;;;;5093073;28;19908;-71
2022/04/19 09:21:58;;;;;;;;;;;20.00;83.40;;;;;;5093333;28;19916;-71
2022/04/19 09:24:25;;;;;;;;;;;20.00;83.20;;;;;;5092893;28;20382;-71
2022/04/19 09:26:51;;;;;;;;;;;20.30;83.30;;;;;;5093404;28;19908;-70
2022/04/19 09:29:21;;;;;;;;;;;20.40;82.80;;;;;;5092685;28;20010;-70
2022/04/19 09:31:50;;;;;;;;;;;20.30;83.30;;;;;;5092792;28;19991;-71
2022/04/19 09:34:22;;;;;;;;;;;19.70;84.50;;;;;;5092670;28;19909;-70
2022/04/19 09:37:04;;;;;;;;;;;20.00;83.70;;;;;;5092966;28;19953;-70
2022/04/19 09:39:44;;;;;;;;;;;20.10;85.20;;;;;;5092885;28;19908;-71
2022/04/19 09:42:17;;;;;;;;;;;20.00;85.60;;;;;;5074245;28;19912;-69
2022/04/19 09:44:44;;;;;;;;;;;19.70;87.10;;;;;;5092853;28;19909;-72
2022/04/19 09:47:11;;;;;;;;;;;19.90;87.00;;;;;;5074417;28;19912;-71
2022/04/19 09:49:51;;;;;;;;;;;19.80;87.10;;;;;;5092355;28;20007;-71
2022/04/19 09:52:20;;;;;;;;;;;19.70;87.00;;;;;;5092232;28;19908;-71
2022/04/19 09:54:58;;;;;;;;;;;19.80;86.50;;;;;;5092938;28;20234;-71
2022/04/19 09:57:25;;;;;;;;;;;19.80;87.20;;;;;;5092583;28;19943;-71
2022/04/19 09:59:51;;;;;;;;;;;19.90;91.70;;;;;;5092646;28;19908;-70
2022/04/19 10:10:33;;;;;;;;;;;20.20;87.00;;;;;;5092761;28;19927;-70
2022/04/19 10:12:59;;;;;;;;;;;19.90;88.20;;;;;;5092740;28;19908;-70
2022/04/19 10:15:24;;;;;;;;;;;19.70;89.50;;;;;;5092475;28;19930;-70
2022/04/19 10:17:50;;;;;;;;;;;19.80;89.30;;;;;;5092973;28;19934;-69
2022/04/19 10:20:16;;;;;;;;;;;19.80;89.30;;;;;;5093207;28;19909;-70
2022/04/19 10:22:46;;;;;;;;;;;20.00;89.50;;;;;;5092812;28;19977;-70
2022/04/19 10:25:22;;;;;;;;;;;19.70;88.30;;;;;;5092720;28;19908;-70
2022/04/19 10:27:49;;;;;;;;;;;19.60;89.60;;;;;;5092949;28;19930;-70
2022/04/19 10:30:18;;;;;;;;;;;19.70;88.80;;;;;;5074299;28;19912;-70
2022/04/19 10:32:44;;;;;;;;;;;19.90;89.70;;;;;;5092669;28;20280;-70
2022/04/19 10:35:10;;;;;;;;;;;20.00;89.30;;;;;;5092397;28;19955;-70
2022/04/19 10:37:36;;;;;;;;;;;20.00;89.20;;;;;;5092351;28;19908;-70
2022/04/19 10:40:02;;;;;;;;;;;19.80;89.30;;;;;;5092207;28;19920;-70
2022/04/19 10:42:37;;;;;;;;;;;19.80;90.20;;;;;;5093115;28;20311;-69
2022/04/19 10:45:12;;;;;;;;;;;19.70;90.00;;;;;;5092991;28;20283;-70
2022/04/19 10:47:58;;;;;;;;;;;19.50;90.60;;;;;;5092774;28;20405;-70
2022/04/19 10:50:33;;;;;;;;;;;19.40;90.70;;;;;;5073967;28;20287;-70
2022/04/19 10:53:03;;;;;;;;;;;19.50;90.80;;;;;;5073991;28;20398;-69
2022/04/19 10:55:30;;;;;;;;;;;19.70;90.50;;;;;;5092215;28;19923;-70
2022/04/19 11:00:53;;;;;;;;;;;19.70;90.50;;;;;;5095981;28;19915;-70
2022/04/19 11:03:38;;;;;;;;;;;19.70;90.60;;;;;;5095825;28;19912;-69
2022/04/19 11:06:05;;;;;;;;;;;19.90;90.40;;;;;;5078010;28;19947;-70
2022/04/19 11:08:36;;;;;;;;;;;19.90;90.50;;;;;;5095673;28;19909;-70
2022/04/19 11:11:02;;;;;;;;;;;20.10;90.60;;;;;;5095922;28;19923;-70
2022/04/19 11:13:29;;;;;;;;;;;20.20;90.00;;;;;;5096286;28;19909;-71
2022/04/19 11:15:59;;;;;;;;;;;20.30;90.20;;;;;;5095850;28;19915;-70
2022/04/19 11:18:26;;;;;;;;;;;20.30;89.10;;;;;;5078025;28;20317;-70
2022/04/19 11:20:54;;;;;;;;;;;20.20;89.20;;;;;;5096268;28;19908;-70
2022/04/19 11:23:21;;;;;;;;;;;20.20;89.70;;;;;;5096078;28;19915;-70
2022/04/19 11:25:48;;;;;;;;;;;20.10;90.20;;;;;;5096625;28;19934;-70
2022/04/19 11:28:17;;;;;;;;;;;19.90;90.30;;;;;;5096199;28;19908;-71
2022/04/19 11:30:44;;;;;;;;;;;20.00;90.50;;;;;;5095799;28;19941;-71
2022/04/19 11:33:10;;;;;;;;;;;20.00;90.20;;;;;;5095670;28;20412;-70
2022/04/19 11:35:36;;;;;;;;;;;20.10;90.60;;;;;;5096282;28;19999;-70
2022/04/19 11:38:08;;;;;;;;;;;20.10;90.70;;;;;;5095516;28;19908;-70
2022/04/19 11:49:01;;;;;;;;;;;20.30;90.30;;;;;;5095538;28;19974;-70
2022/04/19 11:51:27;;;;;;;;;;;20.00;90.60;;;;;;5095556;28;19959;-71
2022/04/19 11:53:53;;;;;;;;;;;19.80;90.90;;;;;;5095738;28;19924;-71
2022/04/19 11:56:19;;;;;;;;;;;19.70;91.40;;;;;;5077260;28;19923;-71
2022/04/19 11:58:50;;;;;;;;;;;19.80;91.30;;;;;;5095817;28;19931;-71
2022/04/19 12:01:16;;;;;;;;;;;19.70;91.40;;;;;;5095396;28;19986;-68
2022/04/19 12:03:48;;;;;;;;;;;19.60;91.80;;;;;;5095468;28;20348;-71
2022/04/19 12:06:18;;;;;;;;;;;19.80;91.80;;;;;;5095554;28;19908;-71
2022/04/19 12:08:49;;;;;;;;;;;20.00;91.40;;;;;;5094741;28;19908;-71
2022/04/19 12:11:17;;;;;;;;;;;19.80;91.30;;;;;;5095511;28;19916;-72
2022/04/19 12:13:46;;;;;;;;;;;19.70;91.70;;;;;;5095702;28;19908;-71
2022/04/19 12:16:29;;;;;;;;;;;19.70;91.90;;;;;;5095486;28;19915;-70
2022/04/19 12:18:56;;;;;;;;;;;19.70;92.10;;;;;;5095313;28;19909;-71
2022/04/19 12:21:41;;;;;;;;;;;19.90;91.90;;;;;;5095209;28;19915;-71
2022/04/19 12:24:08;;;;;;;;;;;19.80;92.00;;;;;;5095654;28;19908;-71
2022/04/19 12:26:35;;;;;;;;;;;19.70;92.40;;;;;;5095353;28;19908;-71
2022/04/19 12:29:12;;;;;;;;;;;19.90;92.40;;;;;;5095057;28;20267;-71
2022/04/19 12:31:39;;;;;;;;;;;19.80;92.50;;;;;;5076806;28;19923;-71
2022/04/19 12:34:05;;;;;;;;;;;19.70;92.90;;;;;;5095139;28;19919;-70
2022/04/19 12:36:48;;;;;;;;;;;19.50;92.70;;;;;;5094956;28;19919;-71
2022/04/19 12:39:20;;;;;;;;;;;19.50;92.90;;;;;;5075689;28;20096;-70
2022/04/19 12:41:46;;;;;;;;;;;19.60;92.80;;;;;;5094973;28;19962;-72
2022/04/19 12:44:13;;;;;;;;;;;19.50;92.90;;;;;;5094737;28;19909;-70
2022/04/19 12:46:40;;;;;;;;;;;19.80;92.70;;;;;;5094727;28;19947;-73
2022/04/19 12:49:06;;;;;;;;;;;19.80;92.30;;;;;;5076841;28;19912;-71
2022/04/19 12:51:31;;;;;;;;;;;19.90;92.30;;;;;;5094073;28;19923;-71
2022/04/19 12:54:13;;;;;;;;;;;19.80;92.40;;;;;;5075817;28;19926;-72
2022/04/19 12:56:39;;;;;;;;;;;19.60;92.90;;;;;;5094800;28;19923;-72
2022/04/19 12:59:04;;;;;;;;;;;19.60;92.80;;;;;;5094283;28;19912;-72
2022/04/19 13:01:30;;;;;;;;;;;19.50;93.10;;;;;;5094383;28;19914;-72
2022/04/19 13:03:56;;;;;;;;;;;19.70;93.10;;;;;;5094436;28;19908;-72
2022/04/19 13:14:38;;;;;;;;;;;19.90;92.90;;;;;;5094675;28;20404;-70
2022/04/19 13:17:04;;;;;;;;;;;19.80;92.60;;;;;;5094056;28;19962;-70
2022/04/19 13:19:36;;;;;;;;;;;19.90;92.40;;;;;;5094164;28;19966;-70
2022/04/19 13:22:20;;;;;;;;;;;19.90;92.60;;;;;;5093909;28;20336;-70
2022/04/19 13:24:46;;;;;;;;;;;20.10;92.40;;;;;;5093991;28;19912;-70
2022/04/19 13:27:12;;;;;;;;;;;20.10;92.20;;;;;;5093988;28;19908;-69
2022/04/19 13:29:39;;;;;;;;;;;20.20;91.90;;;;;;5094057;28;19912;-71
2022/04/19 13:32:06;;;;;;;;;;;20.20;91.80;;;;;;5094048;28;20413;-71
2022/04/19 13:34:32;;;;;;;;;;;20.10;92.20;;;;;;5093913;28;19908;-71
2022/04/19 13:36:58;;;;;;;;;;;20.10;92.00;;;;;;5094393;28;19908;-71
2022/04/19 13:39:24;;;;;;;;;;;19.90;92.40;;;;;;5093856;28;19916;-71
2022/04/19 13:41:50;;;;;;;;;;;19.70;92.60;;;;;;5093859;28;20248;-71
2022/04/19 13:44:17;;;;;;;;;;;19.70;92.70;;;;;;5093634;28;19909;-71
2022/04/19 13:46:47;;;;;;;;;;;19.90;92.70;;;;;;5075489;28;19915;-71
2022/04/19 13:49:13;;;;;;;;;;;20.10;92.10;;;;;;5093412;28;19924;-71
2022/04/19 13:51:39;;;;;;;;;;;20.20;92.20;;;;;;5079402;28;19916;-70
2022/04/19 13:54:06;;;;;;;;;;;20.30;91.90;;;;;;5050734;28;20021;-70
2022/04/19 13:56:33;;;;;;;;;;;20.40;91.90;;;;;;5052025;28;19920;-70
2022/04/19 13:58:59;;;;;;;;;;;20.50;91.70;;;;;;5052613;28;19909;-71
2022/04/19 14:01:26;;;;;;;;;;;20.30;91.70;;;;;;5052378;28;20022;-70
2022/04/19 14:03:52;;;;;;;;;;;20.10;92.10;;;;;;5052106;28;19928;-70
2022/04/19 14:06:18;;;;;;;;;;;20.10;92.30;;;;;;5052048;28;19909;-71
2022/04/19 14:08:44;;;;;;;;;;;20.00;92.40;;;;;;5050848;28;20344;-71
2022/04/19 14:11:09;;;;;;;;;;;20.10;92.40;;;;;;5052012;28;20411;-70
2022/04/19 14:13:35;;;;;;;;;;;20.00;92.20;;;;;;5051978;28;19909;-70
2022/04/19 14:16:01;;;;;;;;;;;20.00;92.20;;;;;;5051686;28;19909;-70
2022/04/19 14:18:33;;;;;;;;;;;20.00;92.70;;;;;;5051693;28;19909;-72
2022/04/19 14:20:58;;;;;;;;;;;19.80;92.90;;;;;;5051858;28;19975;-70
2022/04/19 14:23:24;;;;;;;;;;;19.80;92.70;;;;;;5051811;28;19909;-70
2022/04/19 14:25:50;;;;;;;;;;;19.50;93.40;;;;;;5052128;28;19912;-70
2022/04/19 14:28:16;;;;;;;;;;;19.20;93.90;;;;;;5051489;28;19909;-70
2022/04/19 14:33:26;;;;;;;;;;;19.20;93.50;;;;;;5055037;28;19974;-71
2022/04/19 14:35:53;;;;;;;;;;;19.20;93.90;;;;;;5055647;28;19917;-72
2022/04/19 14:38:22;;;;;;;;;;;19.10;94.10;;;;;;5055679;28;19916;-70
2022/04/19 14:40:48;;;;;;;;;;;18.90;94.20;;;;;;5054496;28;20280;-70
2022/04/19 14:43:14;;;;;;;;;;;19.00;94.20;;;;;;5055962;28;20041;-70
2022/04/19 14:45:40;;;;;;;;;;;18.90;94.70;;;;;;5055329;28;20431;-71
2022/04/19 14:48:08;;;;;;;;;;;19.00;94.30;;;;;;5053719;28;19916;-70
2022/04/19 14:52:14;;;;;;;;;;;19.10;94.20;;;;;;5053100;28;19923;-71
2022/04/19 14:53:24;;;;;;;;;;;18.90;94.70;;;;;;5064400;28;20050;-71
2022/04/19 14:55:49;;;;;;;;;;;18.90;94.50;;;;;;5075147;28;19916;-71
2022/04/19 14:58:15;;;;;;;;;;;19.00;93.90;;;;;;5074968;28;19908;-72
2022/04/19 15:00:41;;;;;;;;;;;19.00;93.70;;;;;;5074626;28;19908;-71
2022/04/19 15:03:09;;;;;;;;;;;19.00;93.80;;;;;;5091818;28;19983;-72
2022/04/19 15:05:36;;;;;;;;;;;19.00;94.10;;;;;;5095688;28;20008;-72
2022/04/19 15:08:02;;;;;;;;;;;19.10;94.30;;;;;;5094599;28;19930;-72
2022/04/19 15:10:28;;;;;;;;;;;19.00;94.20;;;;;;5094447;28;20346;-73
2022/04/19 15:12:54;;;;;;;;;;;19.10;94.20;;;;;;5095173;28;19952;-74
2022/04/19 15:15:20;;;;;;;;;;;19.00;94.30;;;;;;5094643;28;19954;-77
2022/04/19 15:17:47;;;;;;;;;;;19.10;94.40;;;;;;5094880;28;19908;-72
2022/04/19 15:20:13;;;;;;;;;;;19.00;94.00;;;;;;5094930;28;20006;-73
2022/04/19 15:22:39;;;;;;;;;;;18.90;94.40;;;;;;5095431;28;19908;-72